Time;durP1;ratioP1;P1;durP2;ratioP2;P2;SDS_P1;SDS_P2;PMS_P1;PMS_P2;Temp;Humidity;BMP_temperature;BMP_pressure;BME280_temperature;BME280_humidity;BME280_pressure;Samples;Min_cycle;Max_cycle;Signal;HPM_P1;HPM_P2
2024/01/29 00:00:17;;;;;;;4.95;3.85;;;;;;;;;;5033862;28;20577;-66
2024/01/29 00:02:44;;;;;;;3.90;3.50;;;;;;;;;;5034222;28;20290;-66
2024/01/29 00:05:11;;;;;;;4.63;4.03;;;;;;;;;;5034155;28;20198;-66
2024/01/29 00:07:38;;;;;;;9.65;3.88;;;;;;;;;;5034001;28;20277;-66
2024/01/29 00:10:06;;;;;;;6.22;3.63;;;;;;;;;;5034169;28;20194;-66
2024/01/29 00:12:34;;;;;;;8.27;3.72;;;;;;;;;;5033805;28;20564;-66
2024/01/29 00:15:01;;;;;;;7.13;4.57;;;;;;;;;;5033635;28;20598;-66
2024/01/29 00:17:28;;;;;;;8.15;4.80;;;;;;;;;;5033852;28;20193;-66
2024/01/29 00:19:55;;;;;;;8.57;4.43;;;;;;;;;;5033710;28;20222;-66
2024/01/29 00:22:22;;;;;;;9.77;5.30;;;;;;;;;;5033699;28;20277;-66
2024/01/29 00:24:49;;;;;;;8.27;3.70;;;;;;;;;;5033545;28;20191;-66
2024/01/29 00:27:18;;;;;;;9.65;4.28;;;;;;;;;;5033286;28;20307;-66
2024/01/29 00:29:46;;;;;;;6.20;4.22;;;;;;;;;;5033640;28;20345;-66
2024/01/29 00:32:13;;;;;;;5.05;3.55;;;;;;;;;;5033569;28;20591;-66
2024/01/29 00:34:40;;;;;;;8.30;4.78;;;;;;;;;;5033136;28;20195;-66
2024/01/29 00:37:07;;;;;;;6.88;4.03;;;;;;;;;;5033374;28;20249;-66
2024/01/29 00:39:34;;;;;;;7.65;4.43;;;;;;;;;;5033281;28;20733;-66
2024/01/29 00:42:01;;;;;;;8.32;4.07;;;;;;;;;;5033225;28;20190;-66
2024/01/29 00:44:28;;;;;;;8.48;4.18;;;;;;;;;;5033493;28;20190;-66
2024/01/29 00:46:56;;;;;;;4.60;3.67;;;;;;;;;;5033353;28;20577;-67
2024/01/29 00:49:23;;;;;;;8.27;4.80;;;;;;;;;;5033110;28;20676;-66
2024/01/29 00:51:50;;;;;;;6.45;3.75;;;;;;;;;;5033210;28;20287;-66
2024/01/29 00:54:18;;;;;;;8.13;4.07;;;;;;;;;;5033091;28;20197;-66
2024/01/29 00:56:45;;;;;;;11.95;4.75;;;;;;;;;;5033023;28;20214;-66
2024/01/29 00:59:12;;;;;;;7.70;3.83;;;;;;;;;;5033224;28;20572;-66
2024/01/29 01:01:39;;;;;;;3.72;2.83;;;;;;;;;;5033049;28;20694;-66
2024/01/29 01:04:08;;;;;;;6.85;4.15;;;;;;;;;;5032979;28;20715;-66
2024/01/29 01:06:35;;;;;;;8.93;4.35;;;;;;;;;;5032863;28;20208;-66
2024/01/29 01:09:03;;;;;;;7.90;4.78;;;;;;;;;;5032913;28;20456;-66
2024/01/29 01:11:30;;;;;;;6.15;3.88;;;;;;;;;;5033062;28;20190;-66
2024/01/29 01:13:57;;;;;;;7.93;5.00;;;;;;;;;;5032877;28;20250;-66
2024/01/29 01:16:24;;;;;;;7.90;5.10;;;;;;;;;;5032969;28;20617;-66
2024/01/29 01:18:51;;;;;;;7.85;5.00;;;;;;;;;;5032918;28;20561;-66
2024/01/29 01:21:19;;;;;;;6.32;4.47;;;;;;;;;;5032845;28;20211;-66
2024/01/29 01:23:46;;;;;;;6.60;4.25;;;;;;;;;;5032680;28;20566;-66
2024/01/29 01:26:14;;;;;;;6.47;4.55;;;;;;;;;;5032800;28;20222;-66
2024/01/29 01:28:41;;;;;;;7.80;4.20;;;;;;;;;;5032925;28;20281;-66
2024/01/29 01:31:08;;;;;;;6.25;4.15;;;;;;;;;;5032813;28;20198;-66
2024/01/29 01:33:35;;;;;;;7.22;4.25;;;;;;;;;;5032884;28;20687;-66
2024/01/29 01:36:02;;;;;;;9.15;4.22;;;;;;;;;;5032691;28;20197;-66
2024/01/29 01:38:30;;;;;;;4.35;3.90;;;;;;;;;;5032551;28;20206;-66
2024/01/29 01:40:57;;;;;;;10.77;4.30;;;;;;;;;;5032468;28;20709;-66
2024/01/29 01:43:24;;;;;;;8.07;4.72;;;;;;;;;;5032739;28;20289;-66
2024/01/29 01:46:08;;;;;;;6.25;4.40;;;;;;;;;;5033775;28;20191;-66
2024/01/29 01:48:36;;;;;;;8.43;4.25;;;;;;;;;;5036542;28;20190;-66
2024/01/29 01:51:04;;;;;;;7.18;4.47;;;;;;;;;;5036434;28;20194;-66
2024/01/29 01:53:33;;;;;;;17.25;4.95;;;;;;;;;;5036597;28;20193;-66
2024/01/29 01:56:00;;;;;;;8.32;4.68;;;;;;;;;;5036535;28;20283;-66
2024/01/29 01:58:28;;;;;;;7.47;4.85;;;;;;;;;;5036379;28;20205;-66
2024/01/29 02:00:56;;;;;;;5.50;4.30;;;;;;;;;;5036237;28;20223;-66
2024/01/29 02:03:23;;;;;;;9.32;5.00;;;;;;;;;;5036119;28;20253;-66
2024/01/29 02:05:51;;;;;;;9.23;4.72;;;;;;;;;;5036309;28;20274;-66
2024/01/29 02:08:19;;;;;;;6.43;4.15;;;;;;;;;;5036226;28;20232;-66
2024/01/29 02:10:47;;;;;;;5.53;4.38;;;;;;;;;;5036191;28;20202;-66
2024/01/29 02:13:14;;;;;;;5.47;4.45;;;;;;;;;;5036107;28;20199;-66
2024/01/29 02:15:41;;;;;;;9.48;4.85;;;;;;;;;;5035971;28;20219;-66
2024/01/29 02:18:08;;;;;;;8.95;5.05;;;;;;;;;;5036172;28;20617;-67
2024/01/29 02:20:36;;;;;;;7.20;3.75;;;;;;;;;;5035976;28;20215;-66
2024/01/29 02:23:04;;;;;;;7.80;4.40;;;;;;;;;;5035995;28;20630;-66
2024/01/29 02:25:31;;;;;;;7.30;5.05;;;;;;;;;;5035733;28;20222;-66
2024/01/29 02:27:58;;;;;;;6.75;4.10;;;;;;;;;;5035728;28;20222;-66
2024/01/29 02:30:25;;;;;;;8.63;4.80;;;;;;;;;;5035698;28;20611;-66
2024/01/29 02:32:52;;;;;;;9.55;4.78;;;;;;;;;;5035912;28;20196;-66
2024/01/29 02:35:19;;;;;;;9.43;4.65;;;;;;;;;;5035714;28;20197;-66
2024/01/29 02:37:46;;;;;;;6.13;4.15;;;;;;;;;;5035701;28;20614;-66
2024/01/29 02:40:14;;;;;;;8.98;4.15;;;;;;;;;;5035464;28;20734;-66
2024/01/29 02:42:41;;;;;;;7.95;5.00;;;;;;;;;;5035496;28;20205;-66
2024/01/29 02:45:09;;;;;;;6.80;5.03;;;;;;;;;;5035380;28;20194;-66
2024/01/29 02:47:35;;;;;;;10.18;5.25;;;;;;;;;;5035532;28;20240;-66
2024/01/29 02:50:02;;;;;;;13.30;5.05;;;;;;;;;;5035475;28;20192;-66
2024/01/29 02:52:29;;;;;;;6.05;4.00;;;;;;;;;;5035161;28;20195;-66
2024/01/29 02:54:56;;;;;;;7.43;4.80;;;;;;;;;;5035512;28;20282;-66
2024/01/29 02:57:25;;;;;;;7.57;4.35;;;;;;;;;;5035128;28;20194;-66
2024/01/29 02:59:52;;;;;;;7.45;4.47;;;;;;;;;;5035199;28;20197;-66
2024/01/29 03:02:19;;;;;;;8.07;4.88;;;;;;;;;;5035153;28;20261;-66
2024/01/29 03:04:46;;;;;;;11.27;5.13;;;;;;;;;;5035268;28;20218;-66
2024/01/29 03:07:13;;;;;;;9.07;4.85;;;;;;;;;;5035094;28;20186;-66
2024/01/29 03:09:40;;;;;;;6.40;5.00;;;;;;;;;;5035067;28;20617;-66
2024/01/29 03:12:08;;;;;;;5.45;4.95;;;;;;;;;;5034859;28;20604;-66
2024/01/29 03:14:36;;;;;;;11.88;6.10;;;;;;;;;;5035089;28;20222;-66
2024/01/29 03:17:03;;;;;;;7.28;4.60;;;;;;;;;;5035271;28;20286;-66
2024/01/29 03:19:30;;;;;;;5.95;4.40;;;;;;;;;;5034930;28;20222;-66
2024/01/29 03:21:57;;;;;;;10.00;4.57;;;;;;;;;;5034775;28;20642;-66
2024/01/29 03:24:24;;;;;;;7.55;4.75;;;;;;;;;;5035170;28;20277;-66
2024/01/29 03:26:51;;;;;;;5.80;4.50;;;;;;;;;;5034690;28;20261;-66
2024/01/29 03:29:18;;;;;;;6.00;4.93;;;;;;;;;;5034747;28;20186;-66
2024/01/29 03:31:46;;;;;;;5.65;4.65;;;;;;;;;;5034748;28;20623;-66
2024/01/29 03:34:13;;;;;;;9.07;4.90;;;;;;;;;;5034663;28;20528;-67
2024/01/29 03:36:40;;;;;;;8.25;4.57;;;;;;;;;;5034497;28;20617;-66
2024/01/29 03:39:07;;;;;;;8.82;5.60;;;;;;;;;;5034422;28;20324;-66
2024/01/29 03:41:35;;;;;;;10.45;6.03;;;;;;;;;;5034681;28;20305;-66
2024/01/29 03:44:02;;;;;;;6.75;4.70;;;;;;;;;;5034482;28;20187;-66
2024/01/29 03:46:29;;;;;;;8.48;4.45;;;;;;;;;;5034415;28;20278;-66
2024/01/29 03:48:57;;;;;;;8.75;5.13;;;;;;;;;;5034343;28;20281;-66
2024/01/29 03:51:24;;;;;;;12.70;5.03;;;;;;;;;;5034279;28;20190;-66
2024/01/29 03:53:51;;;;;;;9.60;4.63;;;;;;;;;;5034108;28;20278;-66
2024/01/29 03:56:18;;;;;;;6.63;4.50;;;;;;;;;;5034280;28;20285;-66
2024/01/29 03:58:44;;;;;;;10.23;5.78;;;;;;;;;;5034228;28;20629;-66
2024/01/29 04:01:11;;;;;;;7.28;4.43;;;;;;;;;;5033900;28;20737;-67
2024/01/29 04:03:39;;;;;;;12.75;4.38;;;;;;;;;;5034241;28;20281;-66
2024/01/29 04:06:08;;;;;;;5.50;4.30;;;;;;;;;;5034070;28;20214;-67
2024/01/29 04:08:35;;;;;;;10.48;4.40;;;;;;;;;;5033342;28;20201;-66
2024/01/29 04:11:02;;;;;;;13.50;5.55;;;;;;;;;;5033946;28;20194;-66
2024/01/29 04:13:29;;;;;;;9.50;4.40;;;;;;;;;;5033829;28;20222;-67
2024/01/29 04:15:55;;;;;;;6.97;4.88;;;;;;;;;;5033848;28;20549;-66
2024/01/29 04:18:23;;;;;;;6.50;4.20;;;;;;;;;;5033918;28;20273;-66
2024/01/29 04:20:50;;;;;;;6.70;5.22;;;;;;;;;;5033525;28;20201;-66
2024/01/29 04:23:18;;;;;;;10.02;5.80;;;;;;;;;;5033840;28;20218;-66
2024/01/29 04:25:45;;;;;;;9.30;4.80;;;;;;;;;;5033510;28;20222;-66
2024/01/29 04:28:12;;;;;;;7.35;4.30;;;;;;;;;;5033659;28;20508;-66
2024/01/29 04:30:40;;;;;;;12.40;5.82;;;;;;;;;;5033429;28;20190;-66
2024/01/29 04:33:07;;;;;;;8.13;5.75;;;;;;;;;;5033386;28;20329;-66
2024/01/29 04:35:33;;;;;;;9.93;6.63;;;;;;;;;;5033351;28;20222;-66
2024/01/29 04:38:00;;;;;;;13.20;8.25;;;;;;;;;;5033514;28;20627;-66
2024/01/29 04:40:29;;;;;;;10.10;6.90;;;;;;;;;;5033420;28;20622;-66
2024/01/29 04:42:56;;;;;;;8.75;6.47;;;;;;;;;;5033250;28;20218;-66
2024/01/29 04:45:23;;;;;;;5.35;4.85;;;;;;;;;;5033284;28;20191;-66
2024/01/29 04:47:50;;;;;;;7.45;4.97;;;;;;;;;;5033061;28;20227;-66
2024/01/29 04:50:17;;;;;;;9.05;4.90;;;;;;;;;;5033432;28;20197;-66
2024/01/29 04:52:43;;;;;;;7.60;5.13;;;;;;;;;;5033380;28;20190;-66
2024/01/29 04:55:11;;;;;;;7.57;4.82;;;;;;;;;;5033206;28;20222;-66
2024/01/29 04:57:39;;;;;;;7.53;4.88;;;;;;;;;;5032959;28;20202;-66
2024/01/29 05:00:06;;;;;;;16.75;6.72;;;;;;;;;;5033058;28;20225;-66
2024/01/29 05:02:33;;;;;;;13.75;5.63;;;;;;;;;;5032794;28;20222;-66
2024/01/29 05:04:59;;;;;;;7.45;4.95;;;;;;;;;;5033048;28;20226;-66
2024/01/29 05:07:26;;;;;;;6.55;5.55;;;;;;;;;;5033067;28;20194;-66
2024/01/29 05:09:54;;;;;;;10.05;6.45;;;;;;;;;;5032906;28;20197;-66
2024/01/29 05:12:21;;;;;;;9.40;5.78;;;;;;;;;;5032671;28;20195;-66
2024/01/29 05:14:49;;;;;;;11.02;6.45;;;;;;;;;;5032907;28;20277;-66
2024/01/29 05:17:16;;;;;;;11.10;5.97;;;;;;;;;;5032781;28;20281;-66
2024/01/29 05:19:45;;;;;;;12.40;7.15;;;;;;;;;;5032977;28;20278;-66
2024/01/29 05:22:12;;;;;;;13.40;7.70;;;;;;;;;;5036242;28;20570;-66
2024/01/29 05:24:40;;;;;;;9.27;6.65;;;;;;;;;;5036850;28;20195;-66
2024/01/29 05:27:07;;;;;;;15.50;6.95;;;;;;;;;;5036707;28;20224;-66
2024/01/29 05:29:34;;;;;;;16.10;7.60;;;;;;;;;;5036722;28;20277;-66
2024/01/29 05:32:02;;;;;;;8.40;5.63;;;;;;;;;;5037029;28;20278;-66
2024/01/29 05:34:29;;;;;;;11.13;6.63;;;;;;;;;;5036921;28;20294;-66
2024/01/29 05:36:56;;;;;;;8.43;5.90;;;;;;;;;;5036834;28;20298;-66
2024/01/29 05:39:23;;;;;;;6.32;5.20;;;;;;;;;;5036689;28;20276;-66
2024/01/29 05:41:50;;;;;;;10.73;5.45;;;;;;;;;;5036476;28;20214;-66
2024/01/29 05:44:17;;;;;;;8.68;5.38;;;;;;;;;;5036498;28;20237;-66
2024/01/29 05:46:43;;;;;;;8.55;5.20;;;;;;;;;;5036704;28;20627;-66
2024/01/29 05:49:12;;;;;;;7.05;5.30;;;;;;;;;;5036545;28;20191;-66
2024/01/29 05:51:39;;;;;;;7.72;5.55;;;;;;;;;;5036551;28;20284;-66
2024/01/29 05:54:06;;;;;;;9.98;6.32;;;;;;;;;;5036724;28;20191;-66
2024/01/29 05:56:32;;;;;;;15.82;5.38;;;;;;;;;;5036430;28;20281;-66
2024/01/29 05:58:59;;;;;;;7.93;5.35;;;;;;;;;;5036418;28;20190;-67
2024/01/29 06:01:26;;;;;;;9.02;4.88;;;;;;;;;;5036255;28;20219;-66
2024/01/29 06:03:54;;;;;;;12.52;5.45;;;;;;;;;;5036177;28;20321;-66
2024/01/29 06:06:22;;;;;;;7.88;5.25;;;;;;;;;;5036173;28;20198;-66
2024/01/29 06:08:49;;;;;;;7.63;4.93;;;;;;;;;;5036124;28;20233;-66
2024/01/29 06:11:17;;;;;;;9.45;4.65;;;;;;;;;;5035979;28;20197;-66
2024/01/29 06:13:44;;;;;;;8.40;5.63;;;;;;;;;;5036197;28;20239;-66
2024/01/29 06:16:11;;;;;;;8.80;5.65;;;;;;;;;;5035982;28;20201;-66
2024/01/29 06:18:38;;;;;;;5.30;4.78;;;;;;;;;;5035929;28;20191;-66
2024/01/29 06:21:05;;;;;;;12.48;4.90;;;;;;;;;;5035856;28;20194;-66
2024/01/29 06:23:33;;;;;;;7.15;4.63;;;;;;;;;;5035632;28;20333;-66
2024/01/29 06:26:00;;;;;;;6.85;4.60;;;;;;;;;;5035817;28;20317;-66
2024/01/29 06:28:27;;;;;;;11.63;5.68;;;;;;;;;;5035842;28;20186;-66
2024/01/29 06:30:54;;;;;;;9.75;4.97;;;;;;;;;;5035686;28;20248;-66
2024/01/29 06:33:21;;;;;;;7.93;4.90;;;;;;;;;;5035159;28;20282;-66
2024/01/29 06:35:48;;;;;;;7.10;5.80;;;;;;;;;;5035501;28;20718;-66
2024/01/29 06:38:15;;;;;;;5.07;4.55;;;;;;;;;;5035387;28;20197;-66
2024/01/29 06:40:43;;;;;;;12.30;5.00;;;;;;;;;;5035337;28;20190;-66
2024/01/29 06:43:10;;;;;;;9.25;5.22;;;;;;;;;;5035367;28;20225;-67
2024/01/29 06:45:37;;;;;;;10.23;5.82;;;;;;;;;;5035358;28;20186;-67
2024/01/29 06:48:06;;;;;;;9.02;5.38;;;;;;;;;;5035328;28;20196;-67
2024/01/29 06:50:34;;;;;;;10.75;7.22;;;;;;;;;;5035185;28;20650;-67
2024/01/29 06:53:01;;;;;;;8.85;5.95;;;;;;;;;;5035134;28;20416;-67
2024/01/29 06:55:28;;;;;;;6.97;5.68;;;;;;;;;;5035295;28;20190;-67
2024/01/29 06:57:56;;;;;;;11.30;6.28;;;;;;;;;;5035302;28;20623;-67
2024/01/29 07:00:23;;;;;;;7.85;5.60;;;;;;;;;;5035405;28;20249;-65
2024/01/29 07:02:50;;;;;;;10.95;5.78;;;;;;;;;;5034892;28;20635;-67
2024/01/29 07:05:17;;;;;;;10.30;5.68;;;;;;;;;;5034947;28;20282;-67
2024/01/29 07:07:44;;;;;;;7.93;6.18;;;;;;;;;;5034950;28;20273;-67
2024/01/29 07:10:11;;;;;;;14.52;6.40;;;;;;;;;;5035158;28;20230;-67
2024/01/29 07:12:38;;;;;;;11.23;6.18;;;;;;;;;;5035070;28;20281;-67
2024/01/29 07:15:07;;;;;;;7.10;5.97;;;;;;;;;;5034934;28;20683;-67
2024/01/29 07:17:34;;;;;;;7.40;4.75;;;;;;;;;;5034807;28;20626;-67
2024/01/29 07:20:02;;;;;;;8.45;5.45;;;;;;;;;;5034810;28;20281;-67
2024/01/29 07:22:36;;;;;;;9.25;7.85;;;;;;;;;;5034875;28;20732;-67
2024/01/29 07:25:03;;;;;;;9.93;5.95;;;;;;;;;;5034729;28;20192;-67
2024/01/29 07:27:30;;;;;;;9.85;5.75;;;;;;;;;;5034847;28;20191;-67
2024/01/29 07:29:57;;;;;;;6.07;4.90;;;;;;;;;;5034660;28;20191;-66
2024/01/29 07:32:31;;;;;;;7.00;4.32;;;;;;;;;;5034492;28;20286;-67
2024/01/29 07:34:58;;;;;;;6.35;3.97;;;;;;;;;;5034742;28;20248;-67
2024/01/29 07:37:25;;;;;;;5.68;4.15;;;;;;;;;;5034600;28;20282;-66
2024/01/29 07:39:52;;;;;;;5.85;3.95;;;;;;;;;;5034470;28;20193;-65
2024/01/29 07:42:19;;;;;;;7.05;4.43;;;;;;;;;;5034193;28;20211;-66
2024/01/29 07:44:46;;;;;;;6.47;3.72;;;;;;;;;;5033366;28;20249;-65
2024/01/29 07:47:13;;;;;;;4.57;3.67;;;;;;;;;;5034287;28;20204;-65
2024/01/29 07:49:42;;;;;;;6.38;4.38;;;;;;;;;;5034067;28;20256;-65
2024/01/29 07:52:09;;;;;;;5.28;3.63;;;;;;;;;;5034227;28;20286;-66
2024/01/29 07:54:36;;;;;;;7.82;4.03;;;;;;;;;;5034409;28;20186;-66
2024/01/29 07:57:03;;;;;;;11.02;4.00;;;;;;;;;;5034014;28;20654;-65
2024/01/29 07:59:30;;;;;;;6.30;4.18;;;;;;;;;;5033898;28;20198;-66
2024/01/29 08:01:57;;;;;;;5.85;4.90;;;;;;;;;;5034075;28;20197;-66
2024/01/29 08:04:24;;;;;;;5.05;4.45;;;;;;;;;;5034179;28;20278;-66
2024/01/29 08:06:53;;;;;;;6.85;4.57;;;;;;;;;;5033998;28;20265;-66
2024/01/29 08:09:20;;;;;;;7.47;4.03;;;;;;;;;;5033738;28;20613;-66
2024/01/29 08:11:47;;;;;;;4.80;3.67;;;;;;;;;;5033788;28;20191;-66
2024/01/29 08:14:14;;;;;;;5.93;4.20;;;;;;;;;;5033564;28;20191;-66
2024/01/29 08:16:41;;;;;;;8.50;4.10;;;;;;;;;;5033858;28;20197;-65
2024/01/29 08:19:08;;;;;;;5.25;3.53;;;;;;;;;;5033983;28;20290;-65
2024/01/29 08:21:35;;;;;;;5.95;3.88;;;;;;;;;;5033560;28;20649;-66
2024/01/29 08:24:04;;;;;;;3.50;3.20;;;;;;;;;;5033696;28;20229;-66
2024/01/29 08:26:31;;;;;;;4.20;3.33;;;;;;;;;;5033529;28;20555;-66
2024/01/29 08:28:58;;;;;;;5.32;3.55;;;;;;;;;;5033748;28;20194;-66
2024/01/29 08:31:29;;;;;;;7.65;4.03;;;;;;;;;;5033492;28;20198;-66
2024/01/29 08:33:56;;;;;;;4.43;3.47;;;;;;;;;;5033408;28;20202;-66
2024/01/29 08:36:23;;;;;;;4.38;3.47;;;;;;;;;;5033227;28;20249;-65
2024/01/29 08:38:50;;;;;;;6.00;4.68;;;;;;;;;;5033252;28;20190;-66
2024/01/29 08:41:18;;;;;;;5.30;3.80;;;;;;;;;;5033135;28;20240;-66
2024/01/29 08:43:45;;;;;;;6.38;3.47;;;;;;;;;;5033254;28;20219;-66
2024/01/29 08:46:12;;;;;;;7.10;4.25;;;;;;;;;;5033164;28;20685;-66
2024/01/29 08:48:39;;;;;;;7.85;3.97;;;;;;;;;;5033294;28;20285;-66
2024/01/29 08:51:07;;;;;;;4.63;3.80;;;;;;;;;;5033114;28;20195;-66
2024/01/29 08:53:35;;;;;;;5.90;3.53;;;;;;;;;;5033057;28;20218;-66
2024/01/29 08:56:02;;;;;;;5.30;3.60;;;;;;;;;;5032835;28;20637;-66
2024/01/29 08:58:32;;;;;;;6.50;3.90;;;;;;;;;;5033133;28;20193;-66
2024/01/29 09:00:59;;;;;;;6.88;4.40;;;;;;;;;;5032987;28;20285;-66
2024/01/29 09:03:27;;;;;;;11.27;4.07;;;;;;;;;;5032831;28;20221;-66
2024/01/29 09:05:54;;;;;;;6.18;3.65;;;;;;;;;;5032854;28;20570;-66
2024/01/29 09:08:21;;;;;;;4.82;3.80;;;;;;;;;;5032742;28;20601;-66
2024/01/29 09:10:48;;;;;;;7.35;3.60;;;;;;;;;;5033026;28;20190;-66
2024/01/29 09:13:15;;;;;;;7.45;4.07;;;;;;;;;;5033042;28;20222;-66
2024/01/29 09:15:43;;;;;;;7.65;3.88;;;;;;;;;;5032921;28;20193;-66
2024/01/29 09:18:10;;;;;;;6.57;3.80;;;;;;;;;;5032757;28;20284;-66
2024/01/29 09:20:37;;;;;;;4.72;3.67;;;;;;;;;;5032784;28;20205;-66
2024/01/29 09:23:04;;;;;;;10.57;4.20;;;;;;;;;;5032555;28;20210;-66
2024/01/29 09:25:32;;;;;;;6.80;4.45;;;;;;;;;;5032743;28;20253;-66
2024/01/29 09:27:58;;;;;;;5.95;4.03;;;;;;;;;;5032848;28;20225;-67
2024/01/29 09:30:25;;;;;;;6.70;3.65;;;;;;;;;;5032803;28;20281;-66
2024/01/29 09:32:54;;;;;;;4.45;3.50;;;;;;;;;;5032739;28;20277;-67
2024/01/29 09:35:22;;;;;;;4.20;3.30;;;;;;;;;;5032531;28;20228;-67
2024/01/29 09:37:49;;;;;;;4.38;3.20;;;;;;;;;;5032527;28;20281;-66
2024/01/29 09:40:16;;;;;;;5.25;3.60;;;;;;;;;;5032646;28;20187;-66
2024/01/29 09:42:46;;;;;;;4.75;3.20;;;;;;;;;;5032519;28;20224;-67
2024/01/29 09:45:14;;;;;;;4.70;3.45;;;;;;;;;;5032635;28;20591;-67
2024/01/29 09:47:42;;;;;;;8.50;3.72;;;;;;;;;;5032313;28;20201;-67
2024/01/29 09:50:11;;;;;;;8.43;3.60;;;;;;;;;;5033009;28;20195;-67
2024/01/29 09:52:40;;;;;;;5.32;3.95;;;;;;;;;;5032663;28;20610;-67
2024/01/29 09:55:07;;;;;;;9.63;3.83;;;;;;;;;;5032677;28;20193;-67
2024/01/29 09:57:35;;;;;;;3.40;2.90;;;;;;;;;;5032392;28;20275;-67
2024/01/29 10:00:03;;;;;;;6.85;3.50;;;;;;;;;;5032437;28;20919;-66
2024/01/29 10:02:30;;;;;;;4.30;3.50;;;;;;;;;;5032257;28;20186;-67
2024/01/29 10:04:57;;;;;;;9.83;3.57;;;;;;;;;;5032549;28;20449;-67
2024/01/29 10:07:26;;;;;;;11.35;3.35;;;;;;;;;;5034352;28;20445;-67
2024/01/29 10:09:53;;;;;;;3.70;3.05;;;;;;;;;;5036008;28;20301;-67
2024/01/29 10:12:22;;;;;;;4.27;2.97;;;;;;;;;;5035930;28;20281;-68
2024/01/29 10:14:49;;;;;;;7.57;3.87;;;;;;;;;;5035686;28;20940;-69
2024/01/29 10:17:16;;;;;;;4.07;3.67;;;;;;;;;;5035790;28;20449;-68
2024/01/29 10:19:44;;;;;;;4.17;3.30;;;;;;;;;;5036251;28;20190;-69
2024/01/29 10:22:12;;;;;;;6.33;3.40;;;;;;;;;;5035934;28;20836;-68
2024/01/29 10:24:41;;;;;;;7.67;3.43;;;;;;;;;;5035780;28;20511;-68
2024/01/29 10:27:08;;;;;;;3.95;3.40;;;;;;;;;;5035515;28;20567;-68
2024/01/29 10:29:35;;;;;;;4.70;3.45;;;;;;;;;;5035603;28;20244;-68
2024/01/29 10:32:02;;;;;;;3.93;3.13;;;;;;;;;;5035946;28;20541;-66
2024/01/29 10:34:29;;;;;;;5.50;2.80;;;;;;;;;;5035730;28;20449;-66
2024/01/29 10:36:58;;;;;;;8.10;3.50;;;;;;;;;;5035554;28;20495;-65
2024/01/29 10:39:25;;;;;;;4.77;3.17;;;;;;;;;;5035527;28;20445;-65
2024/01/29 10:41:53;;;;;;;5.87;3.40;;;;;;;;;;5035600;28;20449;-66
2024/01/29 10:44:22;;;;;;;4.70;3.07;;;;;;;;;;5035619;28;20481;-63
2024/01/29 10:46:48;;;;;;;10.07;5.80;;;;;;;;;;5035446;28;20873;-68
2024/01/29 10:49:16;;;;;;;11.07;7.00;;;;;;;;;;5035340;28;20883;-67
2024/01/29 10:51:44;;;;;;;9.27;7.80;;;;;;;;;;5035114;28;20544;-68
2024/01/29 10:54:12;;;;;;;57.33;25.77;;;;;;;;;;5035247;28;20921;-69
2024/01/29 10:56:39;;;;;;;26.73;11.00;;;;;;;;;;5034940;28;20532;-69
2024/01/29 10:59:07;;;;;;;13.02;5.15;;;;;;;;;;5034598;28;20859;-67
2024/01/29 11:01:35;;;;;;;8.13;4.70;;;;;;;;;;5035157;28;20599;-67
2024/01/29 11:04:02;;;;;;;10.70;5.00;;;;;;;;;;5035029;28;20481;-67
2024/01/29 11:06:32;;;;;;;4.60;3.17;;;;;;;;;;5035115;28;20536;-67
2024/01/29 11:09:02;;;;;;;7.40;4.60;;;;;;;;;;5035253;28;20449;-66
2024/01/29 11:11:29;;;;;;;6.00;3.17;;;;;;;;;;5035633;28;20450;-67
2024/01/29 11:13:56;;;;;;;4.57;3.90;;;;;;;;;;5034959;28;20548;-68
2024/01/29 11:16:25;;;;;;;10.90;5.60;;;;;;;;;;5034921;28;20556;-68
2024/01/29 11:18:52;;;;;;;28.63;12.70;;;;;;;;;;5033731;28;20448;-68
2024/01/29 11:21:24;;;;;;;10.27;5.90;;;;;;;;;;5034715;28;20445;-68
2024/01/29 11:23:54;;;;;;;6.77;6.00;;;;;;;;;;5034502;28;20865;-69
2024/01/29 11:26:22;;;;;;;5.83;4.67;;;;;;;;;;5034689;28;20469;-68
2024/01/29 11:28:55;;;;;;;6.90;3.83;;;;;;;;;;5034506;28;20441;-68
2024/01/29 11:31:22;;;;;;;23.43;5.60;;;;;;;;;;5034492;28;21012;-68
2024/01/29 11:33:50;;;;;;;12.07;9.13;;;;;;;;;;5034501;28;20523;-68
2024/01/29 11:36:17;;;;;;;9.70;6.77;;;;;;;;;;5034280;28;20452;-68
2024/01/29 11:38:44;;;;;;;5.50;4.73;;;;;;;;;;5034452;28;20533;-68
2024/01/29 11:41:11;;;;;;;4.23;3.83;;;;;;;;;;5034424;28;20540;-69
2024/01/29 11:43:39;;;;;;;10.23;3.80;;;;;;;;;;5034343;28;20516;-68
2024/01/29 11:46:07;;;;;;;4.43;3.90;;;;;;;;;;5034190;28;20540;-69
2024/01/29 11:48:34;;;;;;;7.63;5.20;;;;;;;;;;5034190;28;20948;-69
2024/01/29 11:51:02;;;;;;;6.53;3.77;;;;;;;;;;5033990;28;21019;-68
2024/01/29 11:53:29;;;;;;;6.13;4.70;;;;;;;;;;5034058;28;20567;-68
2024/01/29 11:55:56;;;;;;;4.13;3.10;;;;;;;;;;5034088;28;20502;-68
2024/01/29 11:58:25;;;;;;;4.40;3.60;;;;;;;;;;5033990;28;20532;-68
2024/01/29 12:00:53;;;;;;;4.10;3.73;;;;;;;;;;5033817;28;20804;-68
2024/01/29 12:03:22;;;;;;;4.03;3.60;;;;;;;;;;5033644;28;20469;-68
2024/01/29 12:05:51;;;;;;;3.77;3.47;;;;;;;;;;5033955;28;20445;-69
2024/01/29 12:08:20;;;;;;;3.40;2.80;;;;;;;;;;5034090;28;20532;-68
2024/01/29 12:10:48;;;;;;;4.90;2.90;;;;;;;;;;5033900;28;20505;-69
2024/01/29 12:13:15;;;;;;;4.33;3.30;;;;;;;;;;5033635;28;20876;-68
2024/01/29 12:15:43;;;;;;;3.83;3.10;;;;;;;;;;5033815;28;20544;-68
2024/01/29 12:18:15;;;;;;;4.93;3.10;;;;;;;;;;5033788;28;20484;-68
2024/01/29 12:20:42;;;;;;;6.30;3.53;;;;;;;;;;5033887;28;20453;-68
2024/01/29 12:23:10;;;;;;;3.80;2.63;;;;;;;;;;5033471;28;20542;-68
2024/01/29 12:25:38;;;;;;;3.90;3.00;;;;;;;;;;5033212;28;20539;-69
2024/01/29 12:28:07;;;;;;;3.03;2.73;;;;;;;;;;5033460;28;20476;-68
2024/01/29 12:30:34;;;;;;;3.30;3.00;;;;;;;;;;5033031;28;20483;-69
2024/01/29 12:33:02;;;;;;;3.90;3.10;;;;;;;;;;5033588;28;20565;-68
2024/01/29 12:35:31;;;;;;;7.00;3.63;;;;;;;;;;5033257;28;21052;-68
2024/01/29 12:38:05;;;;;;;4.17;2.60;;;;;;;;;;5033474;28;20783;-68
2024/01/29 12:40:32;;;;;;;3.60;2.80;;;;;;;;;;5033171;28;20452;-68
2024/01/29 12:43:02;;;;;;;4.43;3.10;;;;;;;;;;5033170;28;20543;-68
2024/01/29 12:45:29;;;;;;;3.50;2.90;;;;;;;;;;5033204;28;20493;-69
2024/01/29 12:48:03;;;;;;;5.40;3.17;;;;;;;;;;5032939;28;20456;-68
2024/01/29 12:50:30;;;;;;;4.43;2.60;;;;;;;;;;5033251;28;20445;-69
2024/01/29 12:52:57;;;;;;;3.40;3.10;;;;;;;;;;5033228;28;20881;-69
2024/01/29 12:55:24;;;;;;;4.30;2.70;;;;;;;;;;5033093;28;20448;-69
2024/01/29 12:57:51;;;;;;;6.00;2.60;;;;;;;;;;5033239;28;20528;-69
2024/01/29 13:00:20;;;;;;;3.20;2.90;;;;;;;;;;5032950;28;20452;-69
2024/01/29 13:02:47;;;;;;;3.37;2.70;;;;;;;;;;5033042;28;20441;-69
2024/01/29 13:05:14;;;;;;;3.60;3.03;;;;;;;;;;5032831;28;21047;-69
2024/01/29 13:07:41;;;;;;;4.20;2.87;;;;;;;;;;5032950;28;20437;-69
2024/01/29 13:10:08;;;;;;;4.50;3.27;;;;;;;;;;5032646;28;20536;-68
2024/01/29 13:12:35;;;;;;;2.80;2.60;;;;;;;;;;5032870;28;20452;-68
2024/01/29 13:15:03;;;;;;;3.73;2.60;;;;;;;;;;5033022;28;20548;-69
2024/01/29 13:17:32;;;;;;;2.77;2.50;;;;;;;;;;5032799;28;20813;-69
2024/01/29 13:19:59;;;;;;;3.33;3.03;;;;;;;;;;5032789;28;20539;-69
2024/01/29 13:22:26;;;;;;;3.40;2.90;;;;;;;;;;5032753;28;20909;-69
2024/01/29 13:24:54;;;;;;;2.97;2.53;;;;;;;;;;5032680;28;20546;-69
2024/01/29 13:27:21;;;;;;;3.30;3.00;;;;;;;;;;5032734;28;20805;-69
2024/01/29 13:29:48;;;;;;;4.43;2.67;;;;;;;;;;5032846;28;20884;-69
2024/01/29 13:32:15;;;;;;;3.07;2.77;;;;;;;;;;5032599;28;20445;-69
2024/01/29 13:34:43;;;;;;;4.13;2.87;;;;;;;;;;5032643;28;20452;-69
2024/01/29 13:37:10;;;;;;;3.30;2.60;;;;;;;;;;5032507;28;20616;-69
2024/01/29 13:39:37;;;;;;;4.33;2.73;;;;;;;;;;5032687;28;20520;-69
2024/01/29 13:42:04;;;;;;;9.23;2.80;;;;;;;;;;5033911;28;20943;-69
2024/01/29 13:44:32;;;;;;;3.90;2.47;;;;;;;;;;5036455;28;20477;-69
2024/01/29 13:46:59;;;;;;;4.07;2.60;;;;;;;;;;5036576;28;20930;-69
2024/01/29 13:49:27;;;;;;;3.07;2.77;;;;;;;;;;5036345;28;20448;-69
2024/01/29 13:51:55;;;;;;;3.23;2.50;;;;;;;;;;5036592;28;20449;-69
2024/01/29 13:54:22;;;;;;;3.67;3.00;;;;;;;;;;5036488;28;20449;-69
2024/01/29 13:56:49;;;;;;;3.77;2.90;;;;;;;;;;5036481;28;21004;-69
2024/01/29 13:59:15;;;;;;;3.80;2.87;;;;;;;;;;5036548;28;20532;-69
2024/01/29 14:01:42;;;;;;;7.03;3.30;;;;;;;;;;5036462;28;20545;-69
2024/01/29 14:04:09;;;;;;;3.80;3.07;;;;;;;;;;5035920;28;20473;-68
2024/01/29 14:06:37;;;;;;;5.83;2.57;;;;;;;;;;5036307;28;20862;-69
2024/01/29 14:09:05;;;;;;;6.10;2.90;;;;;;;;;;5035954;28;20449;-69
2024/01/29 14:11:32;;;;;;;3.13;2.83;;;;;;;;;;5035983;28;20445;-69
2024/01/29 14:13:59;;;;;;;3.30;2.40;;;;;;;;;;5036050;28;20885;-69
2024/01/29 14:16:26;;;;;;;3.30;3.00;;;;;;;;;;5035862;28;20528;-69
2024/01/29 14:18:53;;;;;;;3.30;3.00;;;;;;;;;;5035755;28;20536;-69
2024/01/29 14:21:20;;;;;;;3.70;2.70;;;;;;;;;;5036058;28;20539;-69
2024/01/29 14:23:48;;;;;;;4.10;3.27;;;;;;;;;;5036085;28;20488;-69
2024/01/29 14:26:16;;;;;;;2.83;2.60;;;;;;;;;;5035694;28;20485;-69
2024/01/29 14:28:43;;;;;;;3.40;2.30;;;;;;;;;;5035546;28;20981;-68
2024/01/29 14:31:10;;;;;;;3.97;3.07;;;;;;;;;;5035384;28;20556;-69
2024/01/29 14:33:37;;;;;;;22.63;15.07;;;;;;;;;;5035551;28;20532;-70
2024/01/29 14:36:04;;;;;;;9.23;6.03;;;;;;;;;;5035656;28;20544;-72
2024/01/29 14:38:31;;;;;;;3.50;3.20;;;;;;;;;;5035597;28;20449;-72
2024/01/29 14:40:58;;;;;;;4.63;2.70;;;;;;;;;;5035426;28;20870;-73